Date,TemperatureHighF,TemperatureAvgF,TemperatureLowF,DewpointHighF,DewpointAvgF,DewpointLowF,HumidityHigh,HumidityAvg,HumidityLow,PressureMaxIn,PressureMinIn,WindSpeedMaxMPH,WindSpeedAvgMPH,GustSpeedMaxMPH,PrecipitationSumIn
2013-10-1,74.0,61.3,54.8,65.6,55.5,40.8,100,85,43,29.88,29.73,7,0,7,0.00
2013-10-2,72.7,63.5,55.7,65.2,57.2,49.8,100,81,63,29.79,29.65,11,2,11,0.01
2013-10-3,72.7,62.0,53.8,59.8,51.2,46.2,97,70,45,29.98,29.80,12,1,12,0.00
2013-10-4,70.3,58.9,51.7,63.2,52.4,42.4,100,81,48,30.01,29.95,6,0,6,0.00
2013-10-5,59.3,55.3,52.2,53.5,45.8,40.8,100,71,55,30.08,30.01,1,0,1,0.00
2013-10-6,57.8,51.6,46.5,52.9,41.7,35.1,100,70,47,30.22,30.08,2,0,2,0.03
2013-10-7,69.1,60.8,49.8,69.1,60.7,46.4,100,100,88,30.17,29.74,24,2,24,0.18
2013-10-8,68.3,57.2,46.8,68.3,50.6,38.6,100,80,56,30.32,29.74,18,2,24,0.02
2013-10-9,59.6,50.3,44.1,47.5,43.0,36.5,100,78,51,30.41,30.30,6,0,6,0.00
2013-10-10,60.1,53.0,46.4,59.9,51.1,44.2,100,94,69,30.30,30.12,7,1,7,0.01
2013-10-11,68.4,57.2,49.8,59.1,53.2,49.8,100,88,56,30.13,30.05,2,0,2,0.00
2013-10-12,58.6,54.1,48.6,57.8,50.6,44.1,100,88,71,30.36,30.13,8,0,8,0.00
2013-10-13,57.5,51.6,46.5,56.0,46.2,35.4,100,83,58,30.41,30.32,7,0,7,0.00
2013-10-14,57.8,52.5,46.4,53.9,48.5,45.6,100,87,68,30.32,30.18,11,3,11,0.01
2013-10-15,66.0,58.2,53.5,62.0,54.6,48.8,100,89,62,30.21,30.16,3,0,3,0.00
2013-10-25,51.4,45.7,40.2,38.1,32.6,30.0,69,60,51,29.99,29.84,6,0,6,0.00
2013-10-26,51.4,44.8,37.8,42.9,33.3,26.0,77,64,54,30.03,29.79,24,5,24,0.02
2013-10-27,52.9,47.3,43.1,47.7,39.5,30.9,100,75,58,29.91,29.69,14,2,17,0.06
2013-10-28,52.6,44.5,37.0,41.4,33.2,26.4,72,65,52,30.26,29.90,20,4,20,0.00
2013-10-29,45.4,37.3,31.2,34.4,28.0,19.7,100,71,48,30.37,30.24,5,0,5,0.00
2013-10-30,46.5,40.2,34.1,39.5,32.0,22.0,100,75,42,30.28,30.09,16,1,16,0.00
2013-10-31,60.7,48.6,34.9,60.2,46.7,30.1,100,93,70,30.17,29.69,18,3,18,0.33